sensor_id;sensor_type;location;lat;lon;timestamp;P1;durP1;ratioP1;P2;durP2;ratioP2
65182;SDS011;51771;51.068;-1.780;2024-02-16T00:00:45;11.93;;;6.20;;
65182;SDS011;51771;51.068;-1.780;2024-02-16T00:03:11;10.63;;;5.15;;
65182;SDS011;51771;51.068;-1.780;2024-02-16T00:05:37;9.50;;;4.72;;
65182;SDS011;51771;51.068;-1.780;2024-02-16T00:08:02;10.27;;;5.43;;
65182;SDS011;51771;51.068;-1.780;2024-02-16T00:10:28;7.13;;;3.72;;
65182;SDS011;51771;51.068;-1.780;2024-02-16T00:12:54;7.07;;;3.35;;
65182;SDS011;51771;51.068;-1.780;2024-02-16T00:15:19;6.25;;;2.30;;
65182;SDS011;51771;51.068;-1.780;2024-02-16T00:17:45;4.57;;;1.83;;
65182;SDS011;51771;51.068;-1.780;2024-02-16T00:20:10;4.75;;;1.50;;
65182;SDS011;51771;51.068;-1.780;2024-02-16T00:22:37;4.22;;;1.65;;
65182;SDS011;51771;51.068;-1.780;2024-02-16T00:25:03;3.95;;;1.52;;
65182;SDS011;51771;51.068;-1.780;2024-02-16T00:27:29;4.18;;;1.33;;
65182;SDS011;51771;51.068;-1.780;2024-02-16T00:29:54;3.53;;;1.00;;
65182;SDS011;51771;51.068;-1.780;2024-02-16T00:32:20;3.78;;;1.25;;
65182;SDS011;51771;51.068;-1.780;2024-02-16T00:34:45;3.05;;;1.00;;
65182;SDS011;51771;51.068;-1.780;2024-02-16T00:37:11;3.05;;;1.20;;
65182;SDS011;51771;51.068;-1.780;2024-02-16T00:39:39;2.55;;;0.88;;
65182;SDS011;51771;51.068;-1.780;2024-02-16T00:42:07;3.45;;;0.90;;
65182;SDS011;51771;51.068;-1.780;2024-02-16T00:44:33;2.78;;;1.10;;
65182;SDS011;51771;51.068;-1.780;2024-02-16T00:46:59;4.68;;;1.40;;
65182;SDS011;51771;51.068;-1.780;2024-02-16T00:49:24;3.67;;;1.40;;
65182;SDS011;51771;51.068;-1.780;2024-02-16T00:51:49;5.60;;;1.48;;
65182;SDS011;51771;51.068;-1.780;2024-02-16T00:54:15;4.43;;;1.25;;
65182;SDS011;51771;51.068;-1.780;2024-02-16T00:56:42;3.83;;;1.60;;
65182;SDS011;51771;51.068;-1.780;2024-02-16T00:59:07;4.32;;;1.67;;
65182;SDS011;51771;51.068;-1.780;2024-02-16T01:01:34;4.60;;;1.52;;
65182;SDS011;51771;51.068;-1.780;2024-02-16T01:04:00;4.10;;;1.63;;
65182;SDS011;51771;51.068;-1.780;2024-02-16T01:06:26;3.80;;;1.45;;
65182;SDS011;51771;51.068;-1.780;2024-02-16T01:08:51;6.25;;;1.70;;
65182;SDS011;51771;51.068;-1.780;2024-02-16T01:11:16;3.50;;;1.25;;
65182;SDS011;51771;51.068;-1.780;2024-02-16T01:13:42;4.15;;;1.73;;
65182;SDS011;51771;51.068;-1.780;2024-02-16T01:16:08;5.25;;;1.80;;
65182;SDS011;51771;51.068;-1.780;2024-02-16T01:18:34;5.18;;;1.52;;
65182;SDS011;51771;51.068;-1.780;2024-02-16T01:21:01;4.40;;;1.60;;
65182;SDS011;51771;51.068;-1.780;2024-02-16T01:23:28;6.63;;;2.17;;
65182;SDS011;51771;51.068;-1.780;2024-02-16T01:25:53;6.38;;;1.95;;
65182;SDS011;51771;51.068;-1.780;2024-02-16T01:28:18;4.72;;;1.65;;
65182;SDS011;51771;51.068;-1.780;2024-02-16T01:30:44;5.63;;;1.65;;
65182;SDS011;51771;51.068;-1.780;2024-02-16T01:33:09;4.10;;;1.50;;
65182;SDS011;51771;51.068;-1.780;2024-02-16T01:35:36;4.75;;;1.55;;
65182;SDS011;51771;51.068;-1.780;2024-02-16T01:38:01;5.00;;;2.00;;
65182;SDS011;51771;51.068;-1.780;2024-02-16T01:40:27;5.20;;;1.60;;
65182;SDS011;51771;51.068;-1.780;2024-02-16T01:42:53;4.88;;;1.75;;
65182;SDS011;51771;51.068;-1.780;2024-02-16T01:45:19;6.13;;;1.77;;
65182;SDS011;51771;51.068;-1.780;2024-02-16T01:47:45;4.60;;;1.85;;
65182;SDS011;51771;51.068;-1.780;2024-02-16T01:50:12;4.72;;;2.08;;
65182;SDS011;51771;51.068;-1.780;2024-02-16T01:52:39;6.53;;;1.75;;
65182;SDS011;51771;51.068;-1.780;2024-02-16T01:55:05;5.05;;;1.95;;
65182;SDS011;51771;51.068;-1.780;2024-02-16T01:57:35;6.78;;;2.00;;
65182;SDS011;51771;51.068;-1.780;2024-02-16T02:00:00;7.10;;;2.22;;
65182;SDS011;51771;51.068;-1.780;2024-02-16T02:02:26;6.03;;;1.52;;
65182;SDS011;51771;51.068;-1.780;2024-02-16T02:04:52;4.65;;;1.80;;
65182;SDS011;51771;51.068;-1.780;2024-02-16T02:07:18;4.40;;;1.70;;
65182;SDS011;51771;51.068;-1.780;2024-02-16T02:09:43;4.82;;;1.95;;
65182;SDS011;51771;51.068;-1.780;2024-02-16T02:12:09;6.20;;;2.03;;
65182;SDS011;51771;51.068;-1.780;2024-02-16T02:14:35;4.65;;;1.70;;
65182;SDS011;51771;51.068;-1.780;2024-02-16T02:17:02;5.90;;;2.03;;
65182;SDS011;51771;51.068;-1.780;2024-02-16T02:19:28;6.13;;;1.75;;
65182;SDS011;51771;51.068;-1.780;2024-02-16T02:21:54;4.97;;;1.58;;
65182;SDS011;51771;51.068;-1.780;2024-02-16T02:24:20;4.45;;;1.42;;
65182;SDS011;51771;51.068;-1.780;2024-02-16T02:26:46;6.22;;;1.95;;
65182;SDS011;51771;51.068;-1.780;2024-02-16T02:29:11;5.15;;;1.98;;
65182;SDS011;51771;51.068;-1.780;2024-02-16T02:31:37;5.85;;;1.50;;
65182;SDS011;51771;51.068;-1.780;2024-02-16T02:34:02;4.30;;;1.65;;
65182;SDS011;51771;51.068;-1.780;2024-02-16T02:36:27;5.97;;;1.50;;
65182;SDS011;51771;51.068;-1.780;2024-02-16T02:38:53;5.50;;;1.80;;
65182;SDS011;51771;51.068;-1.780;2024-02-16T02:41:18;3.78;;;1.40;;
65182;SDS011;51771;51.068;-1.780;2024-02-16T02:43:45;4.60;;;1.17;;
65182;SDS011;51771;51.068;-1.780;2024-02-16T02:46:14;3.08;;;1.00;;
65182;SDS011;51771;51.068;-1.780;2024-02-16T02:48:45;2.97;;;1.00;;
65182;SDS011;51771;51.068;-1.780;2024-02-16T02:51:11;3.17;;;0.90;;
65182;SDS011;51771;51.068;-1.780;2024-02-16T02:53:37;4.38;;;1.00;;
65182;SDS011;51771;51.068;-1.780;2024-02-16T02:56:03;2.15;;;0.70;;
65182;SDS011;51771;51.068;-1.780;2024-02-16T02:58:28;3.17;;;1.15;;
65182;SDS011;51771;51.068;-1.780;2024-02-16T03:00:54;2.47;;;0.82;;
65182;SDS011;51771;51.068;-1.780;2024-02-16T03:03:20;4.45;;;1.02;;
65182;SDS011;51771;51.068;-1.780;2024-02-16T03:05:46;3.78;;;1.08;;
65182;SDS011;51771;51.068;-1.780;2024-02-16T03:08:12;3.70;;;1.02;;
65182;SDS011;51771;51.068;-1.780;2024-02-16T03:10:37;4.32;;;1.00;;
65182;SDS011;51771;51.068;-1.780;2024-02-16T03:13:03;2.65;;;0.90;;
65182;SDS011;51771;51.068;-1.780;2024-02-16T03:15:29;4.30;;;1.08;;
65182;SDS011;51771;51.068;-1.780;2024-02-16T03:17:55;2.75;;;0.85;;
65182;SDS011;51771;51.068;-1.780;2024-02-16T03:20:20;2.72;;;0.98;;
65182;SDS011;51771;51.068;-1.780;2024-02-16T03:22:46;3.08;;;1.10;;
65182;SDS011;51771;51.068;-1.780;2024-02-16T03:25:12;6.15;;;1.73;;
65182;SDS011;51771;51.068;-1.780;2024-02-16T03:27:37;4.78;;;1.70;;
65182;SDS011;51771;51.068;-1.780;2024-02-16T03:30:03;4.07;;;1.48;;
65182;SDS011;51771;51.068;-1.780;2024-02-16T03:32:29;4.97;;;1.42;;
65182;SDS011;51771;51.068;-1.780;2024-02-16T03:34:56;5.45;;;2.30;;
65182;SDS011;51771;51.068;-1.780;2024-02-16T03:37:23;5.45;;;1.60;;
65182;SDS011;51771;51.068;-1.780;2024-02-16T03:39:48;6.90;;;1.48;;
65182;SDS011;51771;51.068;-1.780;2024-02-16T03:42:13;3.25;;;1.15;;
65182;SDS011;51771;51.068;-1.780;2024-02-16T03:44:39;5.03;;;1.48;;
65182;SDS011;51771;51.068;-1.780;2024-02-16T03:47:05;6.47;;;1.63;;
65182;SDS011;51771;51.068;-1.780;2024-02-16T03:49:30;3.40;;;1.17;;
65182;SDS011;51771;51.068;-1.780;2024-02-16T03:51:56;2.78;;;0.80;;
65182;SDS011;51771;51.068;-1.780;2024-02-16T03:54:21;7.40;;;0.90;;
65182;SDS011;51771;51.068;-1.780;2024-02-16T03:56:46;6.68;;;1.00;;
65182;SDS011;51771;51.068;-1.780;2024-02-16T03:59:13;2.50;;;0.70;;
65182;SDS011;51771;51.068;-1.780;2024-02-16T04:01:38;3.08;;;0.90;;
65182;SDS011;51771;51.068;-1.780;2024-02-16T04:04:04;2.35;;;0.60;;
65182;SDS011;51771;51.068;-1.780;2024-02-16T04:06:29;4.22;;;1.15;;
65182;SDS011;51771;51.068;-1.780;2024-02-16T04:08:55;3.05;;;0.85;;
65182;SDS011;51771;51.068;-1.780;2024-02-16T04:11:21;3.78;;;1.10;;
65182;SDS011;51771;51.068;-1.780;2024-02-16T04:13:46;3.60;;;0.82;;
65182;SDS011;51771;51.068;-1.780;2024-02-16T04:16:12;3.95;;;1.02;;
65182;SDS011;51771;51.068;-1.780;2024-02-16T04:18:38;3.22;;;0.90;;
65182;SDS011;51771;51.068;-1.780;2024-02-16T04:21:03;5.65;;;1.17;;
65182;SDS011;51771;51.068;-1.780;2024-02-16T04:23:28;6.97;;;0.98;;
65182;SDS011;51771;51.068;-1.780;2024-02-16T04:25:54;6.55;;;1.75;;
65182;SDS011;51771;51.068;-1.780;2024-02-16T04:28:19;7.53;;;1.85;;
65182;SDS011;51771;51.068;-1.780;2024-02-16T04:30:44;5.90;;;1.35;;
65182;SDS011;51771;51.068;-1.780;2024-02-16T04:33:10;6.03;;;1.60;;
65182;SDS011;51771;51.068;-1.780;2024-02-16T04:35:35;8.15;;;1.63;;
65182;SDS011;51771;51.068;-1.780;2024-02-16T04:38:00;5.80;;;1.50;;
65182;SDS011;51771;51.068;-1.780;2024-02-16T04:40:25;6.13;;;1.58;;
65182;SDS011;51771;51.068;-1.780;2024-02-16T04:42:51;10.13;;;1.50;;
65182;SDS011;51771;51.068;-1.780;2024-02-16T04:45:17;6.78;;;1.83;;
65182;SDS011;51771;51.068;-1.780;2024-02-16T04:47:42;7.60;;;1.73;;
65182;SDS011;51771;51.068;-1.780;2024-02-16T04:50:08;9.27;;;1.60;;
65182;SDS011;51771;51.068;-1.780;2024-02-16T04:52:36;8.35;;;2.00;;
65182;SDS011;51771;51.068;-1.780;2024-02-16T04:55:03;11.68;;;2.13;;
65182;SDS011;51771;51.068;-1.780;2024-02-16T04:57:30;6.75;;;1.63;;
65182;SDS011;51771;51.068;-1.780;2024-02-16T04:59:56;9.60;;;1.67;;
65182;SDS011;51771;51.068;-1.780;2024-02-16T05:02:21;12.20;;;2.33;;
65182;SDS011;51771;51.068;-1.780;2024-02-16T05:04:47;12.85;;;2.78;;
65182;SDS011;51771;51.068;-1.780;2024-02-16T05:07:12;15.82;;;2.38;;
65182;SDS011;51771;51.068;-1.780;2024-02-16T05:09:37;4.78;;;1.27;;
65182;SDS011;51771;51.068;-1.780;2024-02-16T05:12:04;8.65;;;1.88;;
65182;SDS011;51771;51.068;-1.780;2024-02-16T05:14:30;9.20;;;1.50;;
65182;SDS011;51771;51.068;-1.780;2024-02-16T05:16:55;12.48;;;2.08;;
65182;SDS011;51771;51.068;-1.780;2024-02-16T05:19:21;17.50;;;2.10;;
65182;SDS011;51771;51.068;-1.780;2024-02-16T05:21:46;11.25;;;1.75;;
65182;SDS011;51771;51.068;-1.780;2024-02-16T05:24:11;8.90;;;1.23;;
65182;SDS011;51771;51.068;-1.780;2024-02-16T05:26:37;10.45;;;1.60;;
65182;SDS011;51771;51.068;-1.780;2024-02-16T05:29:03;9.82;;;1.48;;
65182;SDS011;51771;51.068;-1.780;2024-02-16T05:31:28;7.93;;;1.80;;
65182;SDS011;51771;51.068;-1.780;2024-02-16T05:33:53;11.27;;;2.22;;
65182;SDS011;51771;51.068;-1.780;2024-02-16T05:36:22;14.30;;;2.40;;
65182;SDS011;51771;51.068;-1.780;2024-02-16T05:38:50;4.72;;;1.63;;
65182;SDS011;51771;51.068;-1.780;2024-02-16T05:41:16;10.88;;;1.58;;
65182;SDS011;51771;51.068;-1.780;2024-02-16T05:43:43;10.93;;;1.83;;
65182;SDS011;51771;51.068;-1.780;2024-02-16T05:46:12;8.48;;;1.80;;
65182;SDS011;51771;51.068;-1.780;2024-02-16T05:48:38;13.85;;;2.65;;
65182;SDS011;51771;51.068;-1.780;2024-02-16T05:51:05;8.15;;;1.92;;
65182;SDS011;51771;51.068;-1.780;2024-02-16T05:53:34;10.75;;;2.45;;
65182;SDS011;51771;51.068;-1.780;2024-02-16T05:56:00;9.05;;;1.98;;
65182;SDS011;51771;51.068;-1.780;2024-02-16T05:58:26;14.23;;;2.00;;
65182;SDS011;51771;51.068;-1.780;2024-02-16T06:00:51;9.98;;;2.03;;
65182;SDS011;51771;51.068;-1.780;2024-02-16T06:03:17;5.85;;;1.67;;
65182;SDS011;51771;51.068;-1.780;2024-02-16T06:05:42;5.68;;;1.77;;
65182;SDS011;51771;51.068;-1.780;2024-02-16T06:08:11;10.05;;;1.63;;
65182;SDS011;51771;51.068;-1.780;2024-02-16T06:10:36;11.55;;;1.65;;
65182;SDS011;51771;51.068;-1.780;2024-02-16T06:13:02;11.55;;;1.83;;
65182;SDS011;51771;51.068;-1.780;2024-02-16T06:15:27;7.25;;;1.88;;
65182;SDS011;51771;51.068;-1.780;2024-02-16T06:17:53;9.55;;;1.70;;
65182;SDS011;51771;51.068;-1.780;2024-02-16T06:20:19;10.43;;;1.73;;
65182;SDS011;51771;51.068;-1.780;2024-02-16T06:22:44;9.23;;;1.98;;
65182;SDS011;51771;51.068;-1.780;2024-02-16T06:25:09;12.27;;;2.20;;
65182;SDS011;51771;51.068;-1.780;2024-02-16T06:27:35;7.45;;;1.90;;
65182;SDS011;51771;51.068;-1.780;2024-02-16T06:30:02;7.25;;;1.50;;
65182;SDS011;51771;51.068;-1.780;2024-02-16T06:32:32;6.15;;;1.48;;
65182;SDS011;51771;51.068;-1.780;2024-02-16T06:34:57;8.18;;;1.60;;
65182;SDS011;51771;51.068;-1.780;2024-02-16T06:37:23;8.35;;;1.73;;
65182;SDS011;51771;51.068;-1.780;2024-02-16T06:39:48;6.30;;;1.40;;
65182;SDS011;51771;51.068;-1.780;2024-02-16T06:42:13;11.82;;;1.92;;
65182;SDS011;51771;51.068;-1.780;2024-02-16T06:44:39;4.22;;;1.55;;
65182;SDS011;51771;51.068;-1.780;2024-02-16T06:47:05;8.82;;;1.60;;
65182;SDS011;51771;51.068;-1.780;2024-02-16T06:49:31;7.93;;;1.63;;
65182;SDS011;51771;51.068;-1.780;2024-02-16T06:51:56;6.22;;;1.63;;
65182;SDS011;51771;51.068;-1.780;2024-02-16T06:54:21;9.98;;;2.58;;
65182;SDS011;51771;51.068;-1.780;2024-02-16T06:56:47;6.63;;;1.60;;
65182;SDS011;51771;51.068;-1.780;2024-02-16T06:59:13;5.70;;;1.50;;
65182;SDS011;51771;51.068;-1.780;2024-02-16T07:01:38;9.35;;;1.42;;
65182;SDS011;51771;51.068;-1.780;2024-02-16T07:04:03;11.05;;;1.38;;
65182;SDS011;51771;51.068;-1.780;2024-02-16T07:06:29;5.82;;;1.70;;
65182;SDS011;51771;51.068;-1.780;2024-02-16T07:08:55;6.57;;;1.70;;
65182;SDS011;51771;51.068;-1.780;2024-02-16T07:11:20;5.35;;;1.35;;
65182;SDS011;51771;51.068;-1.780;2024-02-16T07:13:46;6.82;;;1.42;;
65182;SDS011;51771;51.068;-1.780;2024-02-16T07:16:11;9.45;;;2.05;;
65182;SDS011;51771;51.068;-1.780;2024-02-16T07:18:37;10.25;;;2.55;;
65182;SDS011;51771;51.068;-1.780;2024-02-16T07:21:02;14.73;;;2.45;;
65182;SDS011;51771;51.068;-1.780;2024-02-16T07:23:28;6.38;;;1.70;;
65182;SDS011;51771;51.068;-1.780;2024-02-16T07:25:54;11.95;;;2.13;;
65182;SDS011;51771;51.068;-1.780;2024-02-16T07:28:21;7.70;;;1.45;;
65182;SDS011;51771;51.068;-1.780;2024-02-16T07:30:47;9.82;;;1.40;;
65182;SDS011;51771;51.068;-1.780;2024-02-16T07:33:13;5.32;;;0.85;;
65182;SDS011;51771;51.068;-1.780;2024-02-16T07:35:38;9.35;;;1.85;;
65182;SDS011;51771;51.068;-1.780;2024-02-16T07:38:04;6.22;;;1.70;;
65182;SDS011;51771;51.068;-1.780;2024-02-16T07:40:29;13.65;;;1.40;;
65182;SDS011;51771;51.068;-1.780;2024-02-16T07:42:55;4.93;;;1.10;;
65182;SDS011;51771;51.068;-1.780;2024-02-16T07:45:21;11.07;;;1.30;;
65182;SDS011;51771;51.068;-1.780;2024-02-16T07:47:47;7.47;;;1.75;;
65182;SDS011;51771;51.068;-1.780;2024-02-16T07:50:12;5.97;;;1.33;;
65182;SDS011;51771;51.068;-1.780;2024-02-16T07:52:38;6.32;;;1.40;;
65182;SDS011;51771;51.068;-1.780;2024-02-16T07:55:05;6.95;;;1.58;;
65182;SDS011;51771;51.068;-1.780;2024-02-16T07:57:31;6.40;;;1.20;;
65182;SDS011;51771;51.068;-1.780;2024-02-16T07:59:57;10.90;;;1.67;;
65182;SDS011;51771;51.068;-1.780;2024-02-16T08:02:22;6.20;;;1.20;;
65182;SDS011;51771;51.068;-1.780;2024-02-16T08:04:48;7.70;;;1.13;;
65182;SDS011;51771;51.068;-1.780;2024-02-16T08:07:14;5.20;;;1.13;;
65182;SDS011;51771;51.068;-1.780;2024-02-16T08:09:39;4.72;;;1.60;;
65182;SDS011;51771;51.068;-1.780;2024-02-16T08:12:05;9.13;;;1.45;;
65182;SDS011;51771;51.068;-1.780;2024-02-16T08:14:32;7.88;;;1.40;;
65182;SDS011;51771;51.068;-1.780;2024-02-16T08:16:58;6.75;;;1.95;;
65182;SDS011;51771;51.068;-1.780;2024-02-16T08:19:24;8.68;;;1.33;;
65182;SDS011;51771;51.068;-1.780;2024-02-16T08:21:57;7.65;;;1.35;;
65182;SDS011;51771;51.068;-1.780;2024-02-16T08:24:23;8.38;;;1.63;;
65182;SDS011;51771;51.068;-1.780;2024-02-16T08:26:48;5.57;;;1.27;;
65182;SDS011;51771;51.068;-1.780;2024-02-16T08:29:14;5.82;;;1.10;;
65182;SDS011;51771;51.068;-1.780;2024-02-16T08:31:39;5.97;;;1.50;;
65182;SDS011;51771;51.068;-1.780;2024-02-16T08:34:04;5.25;;;0.75;;
65182;SDS011;51771;51.068;-1.780;2024-02-16T08:36:32;3.20;;;1.30;;
65182;SDS011;51771;51.068;-1.780;2024-02-16T08:38:59;7.07;;;1.02;;
65182;SDS011;51771;51.068;-1.780;2024-02-16T08:41:24;7.28;;;1.20;;
65182;SDS011;51771;51.068;-1.780;2024-02-16T08:43:50;8.27;;;1.27;;
65182;SDS011;51771;51.068;-1.780;2024-02-16T08:46:15;3.15;;;0.73;;
65182;SDS011;51771;51.068;-1.780;2024-02-16T08:48:41;1.77;;;0.73;;
65182;SDS011;51771;51.068;-1.780;2024-02-16T08:51:06;4.65;;;0.85;;
65182;SDS011;51771;51.068;-1.780;2024-02-16T08:53:32;7.93;;;0.90;;
65182;SDS011;51771;51.068;-1.780;2024-02-16T08:55:57;2.90;;;0.80;;
65182;SDS011;51771;51.068;-1.780;2024-02-16T08:58:22;7.28;;;0.90;;
65182;SDS011;51771;51.068;-1.780;2024-02-16T09:00:48;3.60;;;0.63;;
65182;SDS011;51771;51.068;-1.780;2024-02-16T09:03:15;4.35;;;0.82;;
65182;SDS011;51771;51.068;-1.780;2024-02-16T09:05:41;2.35;;;0.60;;
65182;SDS011;51771;51.068;-1.780;2024-02-16T09:08:08;2.92;;;0.43;;
65182;SDS011;51771;51.068;-1.780;2024-02-16T09:10:34;3.05;;;0.65;;
65182;SDS011;51771;51.068;-1.780;2024-02-16T09:12:59;5.90;;;0.70;;
65182;SDS011;51771;51.068;-1.780;2024-02-16T09:15:25;5.30;;;0.60;;
65182;SDS011;51771;51.068;-1.780;2024-02-16T09:17:50;2.95;;;0.73;;
65182;SDS011;51771;51.068;-1.780;2024-02-16T09:20:15;8.05;;;1.15;;
65182;SDS011;51771;51.068;-1.780;2024-02-16T09:22:47;4.22;;;1.15;;
65182;SDS011;51771;51.068;-1.780;2024-02-16T09:25:12;2.10;;;0.50;;
65182;SDS011;51771;51.068;-1.780;2024-02-16T09:27:39;6.30;;;0.60;;
65182;SDS011;51771;51.068;-1.780;2024-02-16T09:30:06;5.60;;;0.57;;
65182;SDS011;51771;51.068;-1.780;2024-02-16T09:32:32;6.85;;;0.90;;
65182;SDS011;51771;51.068;-1.780;2024-02-16T09:34:57;1.63;;;0.50;;
65182;SDS011;51771;51.068;-1.780;2024-02-16T09:37:22;2.58;;;0.50;;
65182;SDS011;51771;51.068;-1.780;2024-02-16T09:39:48;7.55;;;0.68;;
65182;SDS011;51771;51.068;-1.780;2024-02-16T09:42:13;9.38;;;1.00;;
65182;SDS011;51771;51.068;-1.780;2024-02-16T09:44:39;3.03;;;0.68;;
65182;SDS011;51771;51.068;-1.780;2024-02-16T09:47:06;4.28;;;0.68;;
65182;SDS011;51771;51.068;-1.780;2024-02-16T09:49:32;3.17;;;0.82;;
65182;SDS011;51771;51.068;-1.780;2024-02-16T09:51:59;4.30;;;0.73;;
65182;SDS011;51771;51.068;-1.780;2024-02-16T09:54:27;4.45;;;0.70;;
65182;SDS011;51771;51.068;-1.780;2024-02-16T09:56:52;3.15;;;0.50;;
65182;SDS011;51771;51.068;-1.780;2024-02-16T09:59:17;3.28;;;0.65;;
65182;SDS011;51771;51.068;-1.780;2024-02-16T10:01:43;3.65;;;1.00;;
65182;SDS011;51771;51.068;-1.780;2024-02-16T10:04:08;10.38;;;1.38;;
65182;SDS011;51771;51.068;-1.780;2024-02-16T10:06:45;6.70;;;1.30;;
65182;SDS011;51771;51.068;-1.780;2024-02-16T10:09:21;5.28;;;0.82;;
65182;SDS011;51771;51.068;-1.780;2024-02-16T10:11:48;5.78;;;0.93;;
65182;SDS011;51771;51.068;-1.780;2024-02-16T10:14:13;7.90;;;1.20;;
65182;SDS011;51771;51.068;-1.780;2024-02-16T10:16:38;7.47;;;1.08;;
65182;SDS011;51771;51.068;-1.780;2024-02-16T10:19:07;5.82;;;1.00;;
65182;SDS011;51771;51.068;-1.780;2024-02-16T10:21:35;3.30;;;0.80;;
65182;SDS011;51771;51.068;-1.780;2024-02-16T10:24:01;6.13;;;1.27;;
65182;SDS011;51771;51.068;-1.780;2024-02-16T10:26:27;6.30;;;0.95;;
65182;SDS011;51771;51.068;-1.780;2024-02-16T10:28:54;3.15;;;0.77;;
65182;SDS011;51771;51.068;-1.780;2024-02-16T10:31:22;5.25;;;0.60;;
65182;SDS011;51771;51.068;-1.780;2024-02-16T10:34:02;9.23;;;2.03;;
65182;SDS011;51771;51.068;-1.780;2024-02-16T10:36:31;3.85;;;1.02;;
65182;SDS011;51771;51.068;-1.780;2024-02-16T10:39:03;2.45;;;0.30;;
65182;SDS011;51771;51.068;-1.780;2024-02-16T10:41:32;3.83;;;0.70;;
65182;SDS011;51771;51.068;-1.780;2024-02-16T10:44:03;3.53;;;0.60;;
65182;SDS011;51771;51.068;-1.780;2024-02-16T10:46:29;6.07;;;0.90;;
65182;SDS011;51771;51.068;-1.780;2024-02-16T10:48:55;4.57;;;0.75;;
65182;SDS011;51771;51.068;-1.780;2024-02-16T10:54:19;4.13;;;1.05;;
65182;SDS011;51771;51.068;-1.780;2024-02-16T10:56:47;2.42;;;0.70;;
65182;SDS011;51771;51.068;-1.780;2024-02-16T10:59:12;5.43;;;0.80;;
65182;SDS011;51771;51.068;-1.780;2024-02-16T11:01:41;2.53;;;0.80;;
65182;SDS011;51771;51.068;-1.780;2024-02-16T11:04:11;7.05;;;0.82;;
65182;SDS011;51771;51.068;-1.780;2024-02-16T11:06:53;5.07;;;0.60;;
65182;SDS011;51771;51.068;-1.780;2024-02-16T11:11:58;5.18;;;0.90;;
65182;SDS011;51771;51.068;-1.780;2024-02-16T11:17:01;5.55;;;1.30;;
65182;SDS011;51771;51.068;-1.780;2024-02-16T11:19:26;3.33;;;0.68;;
65182;SDS011;51771;51.068;-1.780;2024-02-16T11:21:55;1.65;;;0.50;;
65182;SDS011;51771;51.068;-1.780;2024-02-16T11:24:27;4.65;;;1.00;;
65182;SDS011;51771;51.068;-1.780;2024-02-16T11:26:55;3.17;;;0.80;;
65182;SDS011;51771;51.068;-1.780;2024-02-16T11:29:20;2.90;;;0.60;;
65182;SDS011;51771;51.068;-1.780;2024-02-16T11:31:47;5.07;;;0.75;;
65182;SDS011;51771;51.068;-1.780;2024-02-16T11:34:21;4.00;;;0.80;;
65182;SDS011;51771;51.068;-1.780;2024-02-16T11:36:47;3.45;;;0.70;;
65182;SDS011;51771;51.068;-1.780;2024-02-16T11:39:13;3.17;;;0.73;;
65182;SDS011;51771;51.068;-1.780;2024-02-16T11:41:41;1.90;;;0.50;;
65182;SDS011;51771;51.068;-1.780;2024-02-16T11:44:06;2.40;;;0.65;;
65182;SDS011;51771;51.068;-1.780;2024-02-16T11:46:32;2.55;;;0.70;;
65182;SDS011;51771;51.068;-1.780;2024-02-16T11:49:04;4.68;;;0.68;;
65182;SDS011;51771;51.068;-1.780;2024-02-16T11:51:31;2.22;;;0.63;;
65182;SDS011;51771;51.068;-1.780;2024-02-16T11:53:58;1.25;;;0.38;;
65182;SDS011;51771;51.068;-1.780;2024-02-16T11:56:24;5.53;;;0.90;;
65182;SDS011;51771;51.068;-1.780;2024-02-16T11:58:50;2.90;;;0.68;;
65182;SDS011;51771;51.068;-1.780;2024-02-16T12:01:15;3.08;;;0.73;;
65182;SDS011;51771;51.068;-1.780;2024-02-16T12:03:41;3.50;;;0.68;;
65182;SDS011;51771;51.068;-1.780;2024-02-16T12:06:07;2.40;;;0.40;;
65182;SDS011;51771;51.068;-1.780;2024-02-16T12:08:33;3.83;;;0.60;;
65182;SDS011;51771;51.068;-1.780;2024-02-16T12:10:59;4.53;;;0.60;;
65182;SDS011;51771;51.068;-1.780;2024-02-16T12:13:25;2.90;;;0.70;;
65182;SDS011;51771;51.068;-1.780;2024-02-16T12:15:51;2.80;;;0.60;;
65182;SDS011;51771;51.068;-1.780;2024-02-16T12:20:56;2.20;;;1.00;;
65182;SDS011;51771;51.068;-1.780;2024-02-16T12:23:28;2.83;;;0.82;;
65182;SDS011;51771;51.068;-1.780;2024-02-16T12:25:57;5.00;;;0.98;;
65182;SDS011;51771;51.068;-1.780;2024-02-16T12:28:24;3.28;;;0.60;;
65182;SDS011;51771;51.068;-1.780;2024-02-16T12:30:51;3.88;;;0.55;;
65182;SDS011;51771;51.068;-1.780;2024-02-16T12:33:16;6.63;;;0.60;;
65182;SDS011;51771;51.068;-1.780;2024-02-16T12:35:42;6.18;;;0.68;;
65182;SDS011;51771;51.068;-1.780;2024-02-16T12:38:07;4.80;;;1.05;;
65182;SDS011;51771;51.068;-1.780;2024-02-16T12:40:33;4.70;;;0.68;;
65182;SDS011;51771;51.068;-1.780;2024-02-16T12:42:58;3.38;;;0.63;;
65182;SDS011;51771;51.068;-1.780;2024-02-16T12:45:24;2.92;;;0.70;;
65182;SDS011;51771;51.068;-1.780;2024-02-16T12:47:49;4.03;;;1.05;;
65182;SDS011;51771;51.068;-1.780;2024-02-16T12:50:15;8.98;;;0.70;;
65182;SDS011;51771;51.068;-1.780;2024-02-16T12:52:42;7.55;;;0.85;;
65182;SDS011;51771;51.068;-1.780;2024-02-16T12:55:08;3.63;;;0.90;;
65182;SDS011;51771;51.068;-1.780;2024-02-16T12:57:35;3.40;;;0.98;;
65182;SDS011;51771;51.068;-1.780;2024-02-16T13:00:01;7.65;;;1.08;;
65182;SDS011;51771;51.068;-1.780;2024-02-16T13:02:27;5.47;;;1.20;;
65182;SDS011;51771;51.068;-1.780;2024-02-16T13:04:54;3.28;;;0.55;;
65182;SDS011;51771;51.068;-1.780;2024-02-16T13:07:19;3.97;;;0.70;;
65182;SDS011;51771;51.068;-1.780;2024-02-16T13:09:45;3.78;;;0.73;;
65182;SDS011;51771;51.068;-1.780;2024-02-16T13:12:10;4.97;;;0.70;;
65182;SDS011;51771;51.068;-1.780;2024-02-16T13:14:35;2.63;;;0.52;;
65182;SDS011;51771;51.068;-1.780;2024-02-16T13:17:01;3.33;;;0.55;;
65182;SDS011;51771;51.068;-1.780;2024-02-16T13:19:27;5.10;;;0.80;;
65182;SDS011;51771;51.068;-1.780;2024-02-16T13:21:52;2.42;;;0.60;;
65182;SDS011;51771;51.068;-1.780;2024-02-16T13:24:18;2.67;;;0.70;;
65182;SDS011;51771;51.068;-1.780;2024-02-16T13:26:43;3.30;;;0.88;;
65182;SDS011;51771;51.068;-1.780;2024-02-16T13:29:08;6.20;;;0.85;;
65182;SDS011;51771;51.068;-1.780;2024-02-16T13:31:34;4.25;;;0.98;;
65182;SDS011;51771;51.068;-1.780;2024-02-16T13:33:59;7.90;;;0.98;;
65182;SDS011;51771;51.068;-1.780;2024-02-16T13:36:25;5.63;;;1.00;;
65182;SDS011;51771;51.068;-1.780;2024-02-16T13:38:51;4.82;;;0.57;;
65182;SDS011;51771;51.068;-1.780;2024-02-16T13:41:17;3.78;;;0.55;;
65182;SDS011;51771;51.068;-1.780;2024-02-16T13:43:43;6.45;;;0.95;;
65182;SDS011;51771;51.068;-1.780;2024-02-16T13:46:08;4.60;;;0.70;;
65182;SDS011;51771;51.068;-1.780;2024-02-16T13:48:34;4.07;;;0.80;;
65182;SDS011;51771;51.068;-1.780;2024-02-16T13:51:02;6.53;;;1.10;;
65182;SDS011;51771;51.068;-1.780;2024-02-16T13:53:28;3.55;;;0.73;;
65182;SDS011;51771;51.068;-1.780;2024-02-16T13:55:54;4.03;;;1.00;;
65182;SDS011;51771;51.068;-1.780;2024-02-16T13:58:20;11.25;;;0.90;;
65182;SDS011;51771;51.068;-1.780;2024-02-16T14:00:46;3.80;;;0.70;;
65182;SDS011;51771;51.068;-1.780;2024-02-16T14:03:12;6.85;;;1.05;;
65182;SDS011;51771;51.068;-1.780;2024-02-16T14:05:39;5.57;;;0.80;;
65182;SDS011;51771;51.068;-1.780;2024-02-16T14:08:05;4.38;;;0.77;;
65182;SDS011;51771;51.068;-1.780;2024-02-16T14:10:31;4.85;;;1.00;;
65182;SDS011;51771;51.068;-1.780;2024-02-16T14:12:59;5.47;;;1.23;;
65182;SDS011;51771;51.068;-1.780;2024-02-16T14:15:25;8.13;;;1.33;;
65182;SDS011;51771;51.068;-1.780;2024-02-16T14:17:50;7.22;;;1.05;;
65182;SDS011;51771;51.068;-1.780;2024-02-16T14:20:16;3.78;;;0.85;;
65182;SDS011;51771;51.068;-1.780;2024-02-16T14:22:41;4.90;;;1.25;;
65182;SDS011;51771;51.068;-1.780;2024-02-16T14:25:07;3.67;;;0.68;;
65182;SDS011;51771;51.068;-1.780;2024-02-16T14:27:35;3.47;;;0.80;;
65182;SDS011;51771;51.068;-1.780;2024-02-16T14:30:01;10.18;;;1.27;;
65182;SDS011;51771;51.068;-1.780;2024-02-16T14:32:27;6.63;;;1.25;;
65182;SDS011;51771;51.068;-1.780;2024-02-16T14:34:52;9.45;;;1.38;;
65182;SDS011;51771;51.068;-1.780;2024-02-16T14:37:18;8.52;;;1.05;;